Latest Coastal Weather Observations for Sydney Harbour

IDN60701

Issued at 11:21 am EST Monday 2 May 2016 (issued every 10 minutes, with the page automatically refreshed every 10 minutes)

About coastal observations | Map of coastal stations | Coastal observations for NSW | Marine services | Other Formats
Station Details ID: 066196 Name: WEDDING CAKE WEST Lat: -33.84 Lon: 151.26 Height: 6.0 m
Data from the previous 72 hours. | See also: Recent months at Sydney Harbour
Date/Time
EST
Temp

°C
Wind Pressure Rain
since 9am
mm
Weather Cloud Vis
km
Sea
Height
m
Swell
Dir
 
Speed
knots
Gust
knots
hPa Trend Height
m
Period
s
Dir
02/11:00am 19.3 E 7 8 - - - - - - - - - -
02/10:30am 18.4 W 6 8 - - - - - - - - - -
02/10:00am 18.2 W 4 5 - - - - - - - - - -
02/09:30am 17.4 W 4 6 - - - - - - - - - -
02/09:00am 16.8 W 4 5 - - - - - - - - - -
02/08:30am 16.2 W 5 7 - - - - - - - - - -
02/08:00am 15.9 W 8 10 - - - - - - - - - -
02/07:30am 15.8 W 8 9 - - - - - - - - - -
02/07:00am 15.8 W 6 7 - - - - - - - - - -
02/06:30am 15.9 W 8 9 - - - - - - - - - -
02/06:00am 16.2 W 7 9 - - - - - - - - - -
02/05:30am 16.2 W 8 10 - - - - - - - - - -
02/05:00am 16.5 W 7 9 - - - - - - - - - -
02/04:30am 16.9 WSW 6 8 - - - - - - - - - -
02/04:00am 17.0 WSW 7 11 - - - - - - - - - -
02/03:30am 16.9 W 7 9 - - - - - - - - - -
02/03:00am 17.3 W 8 11 - - - - - - - - - -
02/02:30am 17.7 WSW 10 12 - - - - - - - - - -
02/02:00am 17.8 WSW 6 8 - - - - - - - - - -
02/01:30am 17.9 W 7 10 - - - - - - - - - -
02/01:00am 18.4 W 6 7 - - - - - - - - - -
02/12:30am 18.8 W 8 11 - - - - - - - - - -
02/12:00am 19.4 W 8 15 - - - - - - - - - -
 
Date/Time
EST
Temp

°C
Wind Pressure Rain
since 9am
mm
Weather Cloud Vis
km
Sea
Height
m
Swell
Dir
 
Speed
knots
Gust
knots
hPa Trend Height
m
Period
s
Dir
01/11:30pm 19.9 W 13 17 - - - - - - - - - -
01/11:00pm 20.5 WSW 12 17 - - - - - - - - - -
01/10:30pm 21.3 WSW 10 13 - - - - - - - - - -
01/10:00pm 21.7 WSW 15 19 - - - - - - - - - -
01/09:30pm 22.3 WSW 15 19 - - - - - - - - - -
01/09:00pm 22.9 W 10 13 - - - - - - - - - -
01/08:30pm 23.3 W 10 14 - - - - - - - - - -
01/08:00pm 23.7 W 8 11 - - - - - - - - - -
01/07:30pm 23.4 N 3 4 - - - - - - - - - -
01/07:00pm 22.3 N 8 9 - - - - - - - - - -
01/06:30pm 24.1 NW 7 10 - - - - - - - - - -
01/06:00pm 24.3 NNW 6 8 - - - - - - - - - -
01/05:30pm 24.5 NNW 7 8 - - - - - - - - - -
01/05:00pm 24.7 NNW 6 9 - - - - - - - - - -
01/04:30pm 24.9 N 11 17 - - - - - - - - - -
01/04:00pm 24.9 N 12 14 - - - - - - - - - -
01/03:30pm 24.8 N 11 14 - - - - - - - - - -
01/03:00pm 24.8 NNW 13 16 - - - - - - - - - -
01/02:30pm 24.6 NNW 17 22 - - - - - - - - - -
01/02:00pm 24.3 NNW 16 22 - - - - - - - - - -
01/01:30pm 24.0 NNW 15 19 - - - - - - - - - -
01/01:00pm 22.8 N 15 19 - - - - - - - - - -
01/12:30pm 22.2 N 14 19 - - - - - - - - - -
01/12:00pm 22.2 NNW 14 21 - - - - - - - - - -
01/11:30am 21.7 N 13 18 - - - - - - - - - -
01/11:00am 21.5 N 14 19 - - - - - - - - - -
01/10:30am 21.3 N 13 19 - - - - - - - - - -
01/10:00am 21.0 N 10 14 - - - - - - - - - -
01/09:30am 20.6 N 11 14 - - - - - - - - - -
01/09:00am 20.2 N 9 11 - - - - - - - - - -
01/08:30am 20.4 NNW 11 16 - - - - - - - - - -
01/08:00am 20.1 NNW 11 16 - - - - - - - - - -
01/07:30am 20.0 NNW 11 15 - - - - - - - - - -
01/07:00am 20.1 NNW 9 15 - - - - - - - - - -
01/06:30am 19.6 NW 7 10 - - - - - - - - - -
01/06:00am 21.0 WNW 9 14 - - - - - - - - - -
01/05:30am 20.4 N 7 8 - - - - - - - - - -
01/05:00am 20.3 NNW 6 9 - - - - - - - - - -
01/04:30am 20.4 N 7 10 - - - - - - - - - -
01/04:00am 20.4 NNW 11 15 - - - - - - - - - -
01/03:30am 20.4 NNW 9 13 - - - - - - - - - -
01/03:00am 20.7 NNW 11 15 - - - - - - - - - -
01/02:30am 21.3 NNW 8 13 - - - - - - - - - -
01/02:00am 21.2 NW 7 11 - - - - - - - - - -
01/01:30am 20.9 NNW 7 10 - - - - - - - - - -
01/01:00am 20.7 NNW 4 6 - - - - - - - - - -
01/12:30am 21.2 NNW 5 8 - - - - - - - - - -
01/12:00am 21.2 NW 3 8 - - - - - - - - - -
 
Date/Time
EST
Temp

°C
Wind Pressure Rain
since 9am
mm
Weather Cloud Vis
km
Sea
Height
m
Swell
Dir
 
Speed
knots
Gust
knots
hPa Trend Height
m
Period
s
Dir
30/11:30pm 21.4 N 4 8 - - - - - - - - - -
30/11:00pm 21.6 NNW 10 14 - - - - - - - - - -
30/10:30pm 21.9 NNW 11 13 - - - - - - - - - -
30/10:00pm 21.8 NNW 10 13 - - - - - - - - - -
30/09:30pm 21.9 NNW 10 13 - - - - - - - - - -
30/09:00pm 21.6 NNW 9 10 - - - - - - - - - -
30/08:30pm 21.4 N 7 9 - - - - - - - - - -
30/08:00pm 21.3 N 7 9 - - - - - - - - - -
30/07:30pm 21.4 N 6 8 - - - - - - - - - -
30/07:00pm 21.6 N 7 10 - - - - - - - - - -
30/06:30pm 22.1 N 7 8 - - - - - - - - - -
30/06:00pm 22.3 N 10 11 - - - - - - - - - -
30/05:30pm 22.8 N 10 13 - - - - - - - - - -
30/05:00pm 22.3 NNE 11 12 - - - - - - - - - -
30/04:30pm 22.6 NE 8 10 - - - - - - - - - -
30/04:00pm 24.3 N 5 6 - - - - - - - - - -
30/03:30pm 24.1 N 7 9 - - - - - - - - - -
30/03:00pm 23.9 N 6 8 - - - - - - - - - -
30/02:30pm 23.5 N 8 10 - - - - - - - - - -
30/02:00pm 23.3 N 8 11 - - - - - - - - - -
30/01:30pm 23.4 NNW 9 13 - - - - - - - - - -
30/01:00pm 23.3 N 11 14 - - - - - - - - - -
30/12:30pm 23.1 N 12 19 - - - - - - - - - -
30/12:00pm 22.9 N 14 17 - - - - - - - - - -
30/11:30am 23.0 N 8 11 - - - - - - - - - -
30/11:00am 21.8 NNW 5 7 - - - - - - - - - -
30/10:30am 21.9 NNW 4 5 - - - - - - - - - -
30/10:00am 21.2 NNW 4 5 - - - - - - - - - -
30/09:30am 20.7 NNW 5 6 - - - - - - - - - -
30/09:00am 20.4 NNW 4 5 - - - - - - - - - -
30/08:30am 20.1 NNW 4 6 - - - - - - - - - -
30/08:00am 20.1 W 5 6 - - - - - - - - - -
30/07:30am 20.2 W 2 5 - - - - - - - - - -
30/07:00am 20.7 W 4 5 - - - - - - - - - -
30/06:30am 20.9 W 4 6 - - - - - - - - - -
30/06:00am 20.8 WNW 6 9 - - - - - - - - - -
30/05:30am 20.1 WSW 6 8 - - - - - - - - - -
30/05:00am 20.4 W 5 6 - - - - - - - - - -
30/04:30am 20.7 W 3 6 - - - - - - - - - -
30/04:00am 20.2 W 6 7 - - - - - - - - - -
30/03:30am 20.4 W 5 7 - - - - - - - - - -
30/03:00am 20.5 CALM 0 1 - - - - - - - - - -
30/02:30am 20.5 W 5 6 - - - - - - - - - -
30/02:00am 20.3 W 4 6 - - - - - - - - - -
30/01:30am 20.9 NNW 5 7 - - - - - - - - - -
30/01:00am 21.2 NNW 5 6 - - - - - - - - - -
30/12:30am 21.1 NNW 7 8 - - - - - - - - - -
30/12:00am 21.1 NNW 7 8 - - - - - - - - - -
 
Date/Time
EST
Temp

°C
Wind Pressure Rain
since 9am
mm
Weather Cloud Vis
km
Sea
Height
m
Swell
Dir
 
Speed
knots
Gust
knots
hPa Trend Height
m
Period
s
Dir
29/11:30pm 21.4 N 9 11 - - - - - - - - - -
29/11:00pm 21.5 N 8 11 - - - - - - - - - -
29/10:30pm 21.6 N 9 11 - - - - - - - - - -
29/10:00pm 21.7 N 7 9 - - - - - - - - - -
29/09:30pm 21.5 NNE 6 7 - - - - - - - - - -
29/09:00pm 21.5 N 5 7 - - - - - - - - - -
29/08:30pm 21.6 N 5 7 - - - - - - - - - -
29/08:00pm 22.0 N 8 11 - - - - - - - - - -
29/07:30pm 22.1 N 12 15 - - - - - - - - - -
29/07:00pm 22.2 NNE 13 16 - - - - - - - - - -
29/06:30pm 22.2 NNE 12 14 - - - - - - - - - -
29/06:00pm 22.2 N 10 13 - - - - - - - - - -
29/05:30pm 22.1 N 12 15 - - - - - - - - - -
29/05:00pm 22.0 N 11 14 - - - - - - - - - -
29/04:30pm 21.8 NNE 14 18 - - - - - - - - - -
29/04:00pm 22.0 NNE 15 17 - - - - - - - - - -
29/03:30pm 21.9 NNE 12 15 - - - - - - - - - -
29/03:00pm 22.1 NNE 12 14 - - - - - - - - - -
29/02:30pm 22.1 NNE 13 14 - - - - - - - - - -
29/02:00pm 21.9 NNE 12 13 - - - - - - - - - -
29/01:30pm 21.9 N 8 11 - - - - - - - - - -
29/01:00pm 22.1 N 8 9 - - - - - - - - - -
29/12:30pm 22.0 N 5 7 - - - - - - - - - -
29/12:00pm 21.2 N 5 6 - - - - - - - - - -
29/11:30am 21.1 N 6 8 - - - - - - - - - -

Other Formats:

Comma delimited format used in spreadsheet applications
http://www.bom.gov.au/fwo/IDN60701/IDN60701.95766.axf

JavaScript Object Notation format (JSON) in row-major order
http://www.bom.gov.au/fwo/IDN60701/IDN60701.95766.json